Time;durP1;ratioP1;P1;durP2;ratioP2;P2;SDS_P1;SDS_P2;PMS_P1;PMS_P2;Temp;Humidity;BMP_temperature;BMP_pressure;BME280_temperature;BME280_humidity;BME280_pressure;Samples;Min_cycle;Max_cycle;Signal;HPM_P1;HPM_P2
2024/01/24 00:01:22;;;;;;;12.82;1.70;;;4.20;99.90;;;;;;4906965;29;20393;-78
2024/01/24 00:03:48;;;;;;;5.45;1.60;;;4.10;99.90;;;;;;4923141;29;20031;-78
2024/01/24 00:06:14;;;;;;;9.63;1.45;;;4.10;99.90;;;;;;4887470;29;20027;-78
2024/01/24 00:08:40;;;;;;;7.63;1.77;;;4.10;99.90;;;;;;4919903;29;20152;-78
2024/01/24 00:11:06;;;;;;;10.77;2.45;;;4.20;99.90;;;;;;4928402;29;20040;-78
2024/01/24 00:13:32;;;;;;;9.20;1.80;;;4.20;99.90;;;;;;4905277;29;20127;-78
2024/01/24 00:15:57;;;;;;;9.88;1.77;;;4.20;99.90;;;;;;4904809;29;20043;-78
2024/01/24 00:18:23;;;;;;;17.25;1.92;;;4.20;99.90;;;;;;4889210;29;20401;-78
2024/01/24 00:20:50;;;;;;;5.60;1.40;;;4.20;99.90;;;;;;4915680;29;20028;-79
2024/01/24 00:23:16;;;;;;;10.07;1.63;;;4.20;99.90;;;;;;4915483;29;20060;-78
2024/01/24 00:25:42;;;;;;;10.00;2.00;;;4.20;99.90;;;;;;4916164;29;20112;-79
2024/01/24 00:28:08;;;;;;;13.93;1.70;;;4.20;99.90;;;;;;4923046;29;20024;-78
2024/01/24 00:30:33;;;;;;;12.30;1.48;;;4.20;99.90;;;;;;4921322;29;20421;-78
2024/01/24 00:33:01;;;;;;;6.50;1.40;;;4.20;99.90;;;;;;4924452;29;20146;-78
2024/01/24 00:35:26;;;;;;;7.93;1.50;;;4.10;99.90;;;;;;4917450;29;20074;-79
2024/01/24 00:37:52;;;;;;;10.48;1.90;;;4.10;99.90;;;;;;4912312;29;20044;-78
2024/01/24 00:40:18;;;;;;;15.40;2.15;;;4.20;99.90;;;;;;4919042;29;20115;-78
2024/01/24 00:42:44;;;;;;;9.02;2.13;;;4.30;99.90;;;;;;4899118;29;20045;-78
2024/01/24 00:45:13;;;;;;;6.47;2.13;;;4.30;99.90;;;;;;4925614;29;20139;-78
2024/01/24 00:47:39;;;;;;;8.70;1.85;;;4.30;99.90;;;;;;4913568;29;20063;-78
2024/01/24 00:50:06;;;;;;;7.28;1.67;;;4.30;99.90;;;;;;4921909;29;20049;-78
2024/01/24 00:52:32;;;;;;;8.30;1.80;;;4.30;99.90;;;;;;4917965;29;20032;-78
2024/01/24 00:54:58;;;;;;;11.10;1.80;;;4.20;99.90;;;;;;4898571;29;20036;-78
2024/01/24 00:57:24;;;;;;;9.90;1.77;;;4.30;99.90;;;;;;4922652;29;20066;-78
2024/01/24 00:59:50;;;;;;;5.20;1.30;;;4.30;99.90;;;;;;4915829;29;20032;-78
2024/01/24 01:02:16;;;;;;;4.35;1.60;;;4.30;99.90;;;;;;4905109;29;20071;-79
2024/01/24 01:04:45;;;;;;;8.45;1.60;;;4.20;99.90;;;;;;4914459;29;20128;-78
2024/01/24 01:07:11;;;;;;;10.95;1.70;;;4.20;99.90;;;;;;4922220;29;20040;-78
2024/01/24 01:09:37;;;;;;;9.15;1.88;;;4.20;99.90;;;;;;4923032;29;20056;-78
2024/01/24 01:12:03;;;;;;;5.95;1.83;;;4.30;99.90;;;;;;4904173;29;20028;-78
2024/01/24 01:14:28;;;;;;;12.57;1.80;;;4.20;99.90;;;;;;4921840;29;20139;-78
2024/01/24 01:16:54;;;;;;;4.72;1.65;;;4.20;99.90;;;;;;4915293;29;20111;-78
2024/01/24 01:19:20;;;;;;;10.45;1.95;;;4.20;99.90;;;;;;4924416;29;20473;-79
2024/01/24 01:21:46;;;;;;;6.95;2.10;;;4.20;99.90;;;;;;4898081;29;20047;-79
2024/01/24 01:24:12;;;;;;;6.20;1.42;;;4.30;99.90;;;;;;4915624;29;20033;-78
2024/01/24 01:26:37;;;;;;;8.57;1.75;;;4.30;99.90;;;;;;4905774;29;20089;-79
2024/01/24 01:29:03;;;;;;;7.50;1.60;;;4.40;99.90;;;;;;4917744;29;20034;-78
2024/01/24 01:31:29;;;;;;;10.27;2.15;;;4.50;99.90;;;;;;4921904;29;20525;-79
2024/01/24 01:33:55;;;;;;;12.57;2.22;;;4.50;99.90;;;;;;4922910;29;20039;-79
2024/01/24 01:36:21;;;;;;;10.05;1.83;;;4.50;99.90;;;;;;4923067;29;20105;-78
2024/01/24 01:38:47;;;;;;;7.55;1.85;;;4.50;99.90;;;;;;4922386;29;20142;-79
2024/01/24 01:41:12;;;;;;;8.85;2.30;;;4.50;99.90;;;;;;4920407;29;20099;-78
2024/01/24 01:43:38;;;;;;;9.63;1.80;;;4.60;99.90;;;;;;4918667;29;20473;-79
2024/01/24 01:46:09;;;;;;;8.13;1.38;;;4.60;99.90;;;;;;4916857;29;20044;-77
2024/01/24 01:48:35;;;;;;;15.00;1.95;;;4.70;99.90;;;;;;4917843;29;20068;-78
2024/01/24 01:51:01;;;;;;;12.40;1.67;;;4.70;99.90;;;;;;4897956;29;20039;-78
2024/01/24 01:53:27;;;;;;;12.95;2.05;;;4.70;99.90;;;;;;4915200;29;20095;-78
2024/01/24 01:55:54;;;;;;;8.18;1.75;;;4.80;99.90;;;;;;4887411;29;20036;-78
2024/01/24 01:58:21;;;;;;;9.13;1.77;;;4.80;99.90;;;;;;4912546;29;20502;-78
2024/01/24 02:00:49;;;;;;;10.80;2.25;;;4.90;99.90;;;;;;4898584;29;20071;-77
2024/01/24 02:03:15;;;;;;;13.18;2.22;;;4.90;99.90;;;;;;4895437;29;20047;-77
2024/01/24 02:05:42;;;;;;;9.70;1.95;;;5.00;99.90;;;;;;4916098;29;20032;-79
2024/01/24 02:08:08;;;;;;;11.32;1.60;;;5.00;99.90;;;;;;4916843;29;20036;-79
2024/01/24 02:10:34;;;;;;;7.53;1.67;;;5.00;99.90;;;;;;4915436;29;20035;-79
2024/01/24 02:13:00;;;;;;;8.57;1.98;;;4.90;99.90;;;;;;4903931;29;20033;-78
2024/01/24 02:15:27;;;;;;;6.97;1.60;;;4.90;99.90;;;;;;4920191;29;20161;-78
2024/01/24 02:17:53;;;;;;;11.88;1.75;;;4.90;99.90;;;;;;4917534;29;20032;-78
2024/01/24 02:20:21;;;;;;;8.63;2.17;;;4.90;99.90;;;;;;4920863;29;20417;-77
2024/01/24 02:22:46;;;;;;;13.02;2.10;;;4.90;99.90;;;;;;4895995;29;20124;-79
2024/01/24 02:25:12;;;;;;;14.45;2.70;;;5.00;99.90;;;;;;4909709;29;20147;-78
2024/01/24 02:27:38;;;;;;;11.13;2.22;;;5.00;99.90;;;;;;4897441;29;20079;-78
2024/01/24 02:30:05;;;;;;;5.90;1.60;;;5.10;99.90;;;;;;4912524;29;20024;-78
2024/01/24 02:32:30;;;;;;;11.90;1.92;;;5.10;99.90;;;;;;4917365;29;20044;-78
2024/01/24 02:34:56;;;;;;;9.73;2.13;;;5.10;99.90;;;;;;4908985;29;20024;-77
2024/01/24 02:37:22;;;;;;;10.35;2.22;;;5.20;99.90;;;;;;4919291;29;20080;-77
2024/01/24 02:39:48;;;;;;;14.30;2.28;;;5.20;99.90;;;;;;4920901;29;20066;-77
2024/01/24 02:42:14;;;;;;;19.75;3.15;;;5.20;99.90;;;;;;4895287;29;20733;-78
2024/01/24 02:44:40;;;;;;;8.20;1.63;;;5.20;99.90;;;;;;4925458;29;20032;-78
2024/01/24 02:47:05;;;;;;;12.85;1.77;;;5.30;99.90;;;;;;4892609;29;20028;-79
2024/01/24 02:49:31;;;;;;;6.45;2.05;;;5.20;99.90;;;;;;4903276;29;20516;-78
2024/01/24 02:52:01;;;;;;;9.20;1.58;;;5.30;99.90;;;;;;4906540;29;20043;-79
2024/01/24 02:54:27;;;;;;;9.93;1.27;;;5.30;99.90;;;;;;4917229;29;20087;-80
2024/01/24 02:56:52;;;;;;;9.27;2.45;;;5.30;99.90;;;;;;4920296;29;20516;-79
2024/01/24 02:59:18;;;;;;;9.57;1.50;;;5.30;99.90;;;;;;4918830;29;20040;-77
2024/01/24 03:01:44;;;;;;;6.03;1.75;;;5.30;99.90;;;;;;4916533;29;20036;-79
2024/01/24 03:04:10;;;;;;;5.88;1.60;;;5.30;99.90;;;;;;4909221;29;20036;-79
2024/01/24 03:06:35;;;;;;;8.18;1.60;;;5.30;99.90;;;;;;4926970;29;20502;-79
2024/01/24 03:09:02;;;;;;;9.30;1.80;;;5.40;99.90;;;;;;4922855;29;20032;-78
2024/01/24 03:11:27;;;;;;;21.08;4.43;;;5.40;99.90;;;;;;4909992;29;20031;-79
2024/01/24 03:13:53;;;;;;;14.43;1.83;;;5.50;99.90;;;;;;4913651;29;20082;-78
2024/01/24 03:16:19;;;;;;;14.25;1.85;;;5.50;99.90;;;;;;4925105;29;20128;-78
2024/01/24 03:18:44;;;;;;;13.35;1.90;;;5.50;99.90;;;;;;4921725;29;20051;-79
2024/01/24 03:21:15;;;;;;;10.00;1.83;;;5.60;99.90;;;;;;4921870;29;20039;-79
2024/01/24 03:23:41;;;;;;;10.45;2.00;;;5.60;99.90;;;;;;4917049;29;20118;-79
2024/01/24 03:26:06;;;;;;;10.65;2.13;;;5.60;99.90;;;;;;4896185;29;20111;-78
2024/01/24 03:28:33;;;;;;;9.35;1.95;;;5.70;99.90;;;;;;4916756;29;20072;-79
2024/01/24 03:30:59;;;;;;;10.15;2.08;;;5.70;99.90;;;;;;4916797;29;20047;-78
2024/01/24 03:33:25;;;;;;;11.18;1.80;;;5.80;99.90;;;;;;4916984;29;20036;-78
2024/01/24 03:35:51;;;;;;;7.15;1.65;;;5.80;99.90;;;;;;4912904;29;20033;-79
2024/01/24 03:38:18;;;;;;;12.80;2.17;;;5.80;99.90;;;;;;4921326;29;20051;-78
2024/01/24 03:40:44;;;;;;;14.63;2.25;;;5.90;99.90;;;;;;4911808;29;20473;-78
2024/01/24 03:43:13;;;;;;;8.43;1.67;;;5.90;99.90;;;;;;4918859;29;20036;-78
2024/01/24 03:45:39;;;;;;;9.23;1.50;;;6.00;99.90;;;;;;4919023;29;20024;-78
2024/01/24 03:48:06;;;;;;;9.57;1.63;;;6.00;99.90;;;;;;4909795;29;20119;-78
2024/01/24 03:50:33;;;;;;;11.73;2.25;;;6.00;99.90;;;;;;4894607;29;20206;-78
2024/01/24 03:53:01;;;;;;;6.85;1.70;;;6.10;99.90;;;;;;4919579;29;20532;-79
2024/01/24 03:55:26;;;;;;;8.80;1.98;;;6.10;99.90;;;;;;4903541;29;20071;-79
2024/01/24 03:57:52;;;;;;;7.53;1.70;;;6.20;99.90;;;;;;4889419;29;20520;-80
2024/01/24 04:00:18;;;;;;;12.20;2.38;;;6.20;99.90;;;;;;4909232;29;20083;-79
2024/01/24 04:02:43;;;;;;;9.35;2.03;;;6.20;99.90;;;;;;4901433;29;20057;-78
2024/01/24 04:05:10;;;;;;;6.65;1.40;;;6.20;99.90;;;;;;4913073;29;20441;-79
2024/01/24 04:07:36;;;;;;;8.32;2.22;;;6.30;99.90;;;;;;4914734;29;20033;-79
2024/01/24 04:10:03;;;;;;;11.95;1.77;;;6.30;99.90;;;;;;4904023;29;20040;-80
2024/01/24 04:12:30;;;;;;;9.68;1.88;;;6.40;99.90;;;;;;4896432;29;20040;-79
2024/01/24 04:14:56;;;;;;;10.68;2.35;;;6.40;99.90;;;;;;4897260;29;20541;-78
2024/01/24 04:17:21;;;;;;;4.70;1.70;;;6.40;99.90;;;;;;4911566;29;20029;-79
2024/01/24 04:19:47;;;;;;;8.25;1.88;;;6.50;99.90;;;;;;4896612;29;20070;-80
2024/01/24 04:22:15;;;;;;;10.25;1.80;;;6.50;99.90;;;;;;4895201;29;20024;-78
2024/01/24 04:24:42;;;;;;;6.90;2.58;;;6.50;99.90;;;;;;4912517;29;20032;-78
2024/01/24 04:27:08;;;;;;;5.03;1.92;;;6.60;99.90;;;;;;4906037;29;20047;-78
2024/01/24 04:29:33;;;;;;;6.05;1.67;;;6.60;99.90;;;;;;4911865;29;20024;-78
2024/01/24 04:31:59;;;;;;;10.90;2.38;;;6.60;99.90;;;;;;4895929;29;20024;-79
2024/01/24 04:34:25;;;;;;;6.68;1.88;;;6.60;99.90;;;;;;4905803;29;20036;-79
2024/01/24 04:36:54;;;;;;;8.77;2.08;;;6.60;99.90;;;;;;4914577;29;20493;-79
2024/01/24 04:39:21;;;;;;;10.38;2.13;;;6.60;99.90;;;;;;4908932;29;20048;-79
2024/01/24 04:41:47;;;;;;;11.20;2.55;;;6.70;99.90;;;;;;4915878;29;20051;-79
2024/01/24 04:44:14;;;;;;;9.32;2.00;;;6.70;99.90;;;;;;4908935;29;20036;-79
2024/01/24 04:46:39;;;;;;;6.35;2.10;;;6.80;99.90;;;;;;4913944;29;20052;-79
2024/01/24 04:49:11;;;;;;;9.18;2.00;;;6.80;99.90;;;;;;4912829;29;20024;-79
2024/01/24 04:52:02;;;;;;;6.38;1.95;;;6.90;99.90;;;;;;4917751;29;20098;-78
2024/01/24 04:54:28;;;;;;;4.70;1.83;;;6.90;99.90;;;;;;4911300;29;20319;-79
2024/01/24 04:56:54;;;;;;;13.02;1.88;;;7.00;99.90;;;;;;4893356;29;20091;-79
2024/01/24 04:59:19;;;;;;;5.15;1.85;;;7.00;99.90;;;;;;4911031;29;20084;-79
2024/01/24 05:01:47;;;;;;;4.40;1.67;;;7.10;99.90;;;;;;4916528;29;20062;-78
2024/01/24 05:04:12;;;;;;;3.90;1.80;;;7.10;99.90;;;;;;4916513;29;20032;-80
2024/01/24 05:06:38;;;;;;;6.10;2.35;;;7.20;99.90;;;;;;4904367;29;20054;-80
2024/01/24 05:09:04;;;;;;;4.20;1.95;;;7.30;99.90;;;;;;4912614;29;20028;-80
2024/01/24 05:11:30;;;;;;;5.45;1.80;;;7.30;99.90;;;;;;4911224;29;20039;-80
2024/01/24 05:14:00;;;;;;;5.30;1.95;;;7.40;99.90;;;;;;4897944;29;20127;-78
2024/01/24 05:16:27;;;;;;;7.40;2.28;;;7.40;99.90;;;;;;4897378;29;20501;-80
2024/01/24 05:18:54;;;;;;;6.38;1.80;;;7.50;99.90;;;;;;4913501;29;20035;-79
2024/01/24 05:21:20;;;;;;;6.22;2.22;;;7.50;99.90;;;;;;4901078;29;20477;-80
2024/01/24 05:23:46;;;;;;;6.75;1.95;;;7.60;99.90;;;;;;4911225;29;20123;-80
2024/01/24 05:26:12;;;;;;;8.98;2.70;;;7.60;99.90;;;;;;4916159;29;20066;-79
2024/01/24 05:28:37;;;;;;;5.72;1.90;;;7.70;99.90;;;;;;4906036;29;20520;-80
2024/01/24 05:31:03;;;;;;;7.30;1.83;;;7.70;99.90;;;;;;4904543;29;20123;-80
2024/01/24 05:33:29;;;;;;;7.82;2.05;;;7.70;99.90;;;;;;4914024;29;20043;-81
2024/01/24 05:35:55;;;;;;;4.38;1.80;;;7.80;99.90;;;;;;4893693;29;20094;-80
2024/01/24 05:38:20;;;;;;;7.35;1.75;;;7.80;99.90;;;;;;4897363;29;20032;-80
2024/01/24 05:40:46;;;;;;;7.10;2.40;;;7.80;99.90;;;;;;4896923;29;20478;-78
2024/01/24 05:43:12;;;;;;;8.05;1.60;;;7.90;99.90;;;;;;4897928;29;20036;-80
2024/01/24 05:45:38;;;;;;;6.78;2.10;;;7.90;99.90;;;;;;4918637;29;20031;-79
2024/01/24 05:48:04;;;;;;;6.50;1.90;;;8.00;99.90;;;;;;4914171;29;20039;-79
2024/01/24 05:50:30;;;;;;;1.92;1.50;;;8.00;99.90;;;;;;4903283;29;20040;-79
2024/01/24 05:52:57;;;;;;;5.78;1.70;;;8.00;99.90;;;;;;4895599;29;20095;-77
2024/01/24 05:55:22;;;;;;;3.95;2.05;;;8.00;99.90;;;;;;4909282;29;20152;-78
2024/01/24 05:57:48;;;;;;;4.03;1.70;;;8.10;99.90;;;;;;4904206;29;20119;-80
2024/01/24 06:00:14;;;;;;;6.57;1.80;;;8.00;99.90;;;;;;4910038;29;20056;-77
2024/01/24 06:02:40;;;;;;;8.75;1.70;;;8.00;99.90;;;;;;4903973;29;20043;-79
2024/01/24 06:05:07;;;;;;;3.65;1.83;;;7.90;99.90;;;;;;4910193;29;20024;-78
2024/01/24 06:07:33;;;;;;;4.65;1.65;;;7.90;99.90;;;;;;4898555;29;20107;-81
2024/01/24 06:10:00;;;;;;;6.90;2.28;;;7.90;99.90;;;;;;4917892;29;20516;-82
2024/01/24 06:12:26;;;;;;;6.82;1.77;;;7.90;99.90;;;;;;4917752;29;20035;-80
2024/01/24 06:14:55;;;;;;;3.38;1.83;;;7.90;99.90;;;;;;4920320;29;20024;-81
2024/01/24 06:17:21;;;;;;;4.65;1.77;;;7.90;99.90;;;;;;4918006;29;20507;-80
2024/01/24 06:19:47;;;;;;;9.85;2.42;;;8.00;99.90;;;;;;4909055;29;20505;-80
2024/01/24 06:22:12;;;;;;;8.05;2.20;;;8.00;99.90;;;;;;4919969;29;20024;-80
2024/01/24 06:24:38;;;;;;;4.10;1.92;;;8.00;99.90;;;;;;4918769;29;20032;-80
2024/01/24 06:27:05;;;;;;;9.98;2.53;;;8.00;99.90;;;;;;4922312;29;20020;-80
2024/01/24 06:29:31;;;;;;;7.88;2.00;;;8.00;99.90;;;;;;4885297;29;20118;-79
2024/01/24 06:31:57;;;;;;;4.38;1.90;;;8.00;99.90;;;;;;4920559;29;20163;-80
2024/01/24 06:34:23;;;;;;;6.03;1.85;;;8.00;99.90;;;;;;4919358;29;20096;-78
2024/01/24 06:36:49;;;;;;;5.32;1.90;;;8.00;99.90;;;;;;4921410;29;20093;-79
2024/01/24 06:39:15;;;;;;;9.43;2.05;;;8.10;99.90;;;;;;4902717;29;20103;-79
2024/01/24 06:41:42;;;;;;;5.47;2.10;;;8.10;99.90;;;;;;4918999;29;20138;-80
2024/01/24 06:44:07;;;;;;;3.88;1.52;;;8.20;99.90;;;;;;4897849;29;20039;-81
2024/01/24 06:46:41;;;;;;;7.85;2.03;;;8.10;99.90;;;;;;4903235;29;20029;-80
2024/01/24 06:49:07;;;;;;;4.97;1.85;;;8.10;99.90;;;;;;4914341;29;20036;-80
2024/01/24 06:51:33;;;;;;;5.43;1.90;;;8.20;99.90;;;;;;4883601;29;20091;-80
2024/01/24 06:53:59;;;;;;;5.40;2.20;;;8.20;99.90;;;;;;4901179;29;20028;-81
2024/01/24 06:56:25;;;;;;;7.47;2.30;;;8.30;99.90;;;;;;4903000;29;20481;-81
2024/01/24 06:58:50;;;;;;;7.15;2.53;;;8.30;99.90;;;;;;4908436;29;20043;-81
2024/01/24 07:01:16;;;;;;;4.80;1.90;;;8.30;99.90;;;;;;4899583;29;20028;-80
2024/01/24 07:03:42;;;;;;;4.47;2.00;;;8.30;99.90;;;;;;4900431;29;20040;-81
2024/01/24 07:06:07;;;;;;;6.70;2.40;;;8.30;99.90;;;;;;4900474;29;20047;-79
2024/01/24 07:08:34;;;;;;;4.63;1.55;;;8.30;99.90;;;;;;4915380;29;20039;-80
2024/01/24 07:11:01;;;;;;;6.28;2.35;;;8.30;99.90;;;;;;4917604;29;20039;-80
2024/01/24 07:13:26;;;;;;;5.68;1.95;;;8.40;99.90;;;;;;4919285;29;20036;-80
2024/01/24 07:15:52;;;;;;;1.95;1.48;;;8.40;99.90;;;;;;4886843;29;20090;-79
2024/01/24 07:18:17;;;;;;;5.10;1.80;;;8.40;99.90;;;;;;4919192;29;20033;-80
2024/01/24 07:20:43;;;;;;;3.05;1.70;;;8.50;99.90;;;;;;4915772;29;20043;-80
2024/01/24 07:23:09;;;;;;;5.72;1.70;;;8.50;99.90;;;;;;4921317;29;20520;-79
2024/01/24 07:25:34;;;;;;;1.60;1.50;;;8.40;99.90;;;;;;4914176;29;20032;-81
2024/01/24 07:28:00;;;;;;;4.35;1.90;;;8.40;99.90;;;;;;4884274;29;20028;-79
2024/01/24 07:30:26;;;;;;;4.20;1.67;;;8.40;99.90;;;;;;4900979;29;20036;-79
2024/01/24 07:32:51;;;;;;;3.17;1.35;;;8.50;99.90;;;;;;4902061;29;20044;-80
2024/01/24 07:35:17;;;;;;;6.47;1.63;;;8.50;99.90;;;;;;4915021;29;20517;-80
2024/01/24 07:37:44;;;;;;;3.15;1.40;;;8.60;99.90;;;;;;4897692;29;20051;-81
2024/01/24 07:40:10;;;;;;;3.63;1.45;;;8.60;99.90;;;;;;4913589;29;20047;-79
2024/01/24 07:42:36;;;;;;;2.83;1.38;;;8.60;99.90;;;;;;4916163;29;20096;-78
2024/01/24 07:45:02;;;;;;;5.00;1.63;;;8.60;99.90;;;;;;4895793;29;20104;-80
2024/01/24 07:47:28;;;;;;;4.25;1.42;;;8.60;99.90;;;;;;4898555;29;20060;-80
2024/01/24 07:49:53;;;;;;;2.65;1.30;;;8.70;99.90;;;;;;4920714;29;20027;-78
2024/01/24 07:52:19;;;;;;;1.15;1.05;;;8.70;99.90;;;;;;4917687;29;20032;-79
2024/01/24 07:54:45;;;;;;;5.20;1.55;;;8.70;99.90;;;;;;4894479;29;20071;-79
2024/01/24 07:57:10;;;;;;;2.47;1.05;;;8.70;99.90;;;;;;4900774;29;20040;-79
2024/01/24 07:59:36;;;;;;;2.58;1.08;;;8.80;99.90;;;;;;4902753;29;20039;-80
2024/01/24 08:02:03;;;;;;;1.90;0.90;;;8.80;99.90;;;;;;4917276;29;20485;-80
2024/01/24 08:04:30;;;;;;;4.30;1.15;;;8.90;99.90;;;;;;4922988;29;20094;-80
2024/01/24 08:06:56;;;;;;;3.85;1.10;;;9.00;99.90;;;;;;4917086;29;20934;-79
2024/01/24 08:09:22;;;;;;;1.00;0.80;;;9.00;99.90;;;;;;4901094;29;20069;-79
2024/01/24 08:11:47;;;;;;;2.97;0.88;;;9.10;99.90;;;;;;4910491;29;20038;-80
2024/01/24 08:14:13;;;;;;;1.63;0.60;;;9.00;99.90;;;;;;4919044;29;20126;-79
2024/01/24 08:16:39;;;;;;;0.63;0.63;;;9.00;99.90;;;;;;4925582;29;20036;-79
2024/01/24 08:19:05;;;;;;;2.30;0.90;;;9.10;99.90;;;;;;4927726;29;20378;-80
2024/01/24 08:21:30;;;;;;;2.58;0.70;;;9.10;99.90;;;;;;4924366;29;20036;-80
2024/01/24 08:23:56;;;;;;;2.05;0.60;;;9.20;99.90;;;;;;4929651;29;20043;-79
2024/01/24 08:26:22;;;;;;;1.75;0.60;;;9.20;99.90;;;;;;4922276;29;20031;-79
2024/01/24 08:28:48;;;;;;;0.88;0.80;;;9.20;99.90;;;;;;4932754;29;20019;-80
2024/01/24 08:31:13;;;;;;;3.60;0.50;;;9.20;99.90;;;;;;4924695;29;20298;-79
2024/01/24 08:33:39;;;;;;;1.85;0.60;;;9.10;99.90;;;;;;4928017;29;20481;-79
2024/01/24 08:36:05;;;;;;;3.22;0.70;;;9.20;99.90;;;;;;4929219;29;20031;-80
2024/01/24 08:38:31;;;;;;;0.70;0.70;;;9.20;99.90;;;;;;4925863;29;20032;-80
2024/01/24 08:40:57;;;;;;;1.05;0.70;;;9.20;99.90;;;;;;4924588;29;20028;-78
2024/01/24 08:43:23;;;;;;;0.77;0.47;;;9.20;99.90;;;;;;4927987;29;20028;-78
2024/01/24 08:45:50;;;;;;;1.75;0.60;;;9.20;99.90;;;;;;4925961;29;20038;-79
2024/01/24 08:48:17;;;;;;;1.95;0.50;;;9.30;99.90;;;;;;4920687;29;20040;-79
2024/01/24 08:50:43;;;;;;;0.40;0.40;;;9.30;99.90;;;;;;4931023;29;20032;-79
2024/01/24 08:53:09;;;;;;;0.80;0.68;;;9.30;99.90;;;;;;4920824;29;20042;-79
2024/01/24 08:55:34;;;;;;;0.80;0.50;;;9.30;99.90;;;;;;4928424;29;20474;-79
2024/01/24 08:58:00;;;;;;;1.27;0.60;;;9.30;99.90;;;;;;4921150;29;20036;-79
2024/01/24 09:00:26;;;;;;;1.90;0.65;;;9.20;99.90;;;;;;4917994;29;20034;-78
2024/01/24 09:02:52;;;;;;;2.45;0.63;;;9.20;99.90;;;;;;4912464;29;20485;-81
2024/01/24 09:05:20;;;;;;;9.82;0.82;;;9.20;99.90;;;;;;4919757;29;20035;-79
2024/01/24 09:07:46;;;;;;;0.68;0.30;;;9.20;99.90;;;;;;4915812;29;20473;-79
2024/01/24 09:10:12;;;;;;;0.45;0.30;;;9.30;99.90;;;;;;4919135;29;20044;-79
2024/01/24 09:12:38;;;;;;;0.98;0.40;;;9.30;99.90;;;;;;4922177;29;20401;-79
2024/01/24 09:15:04;;;;;;;0.28;0.22;;;9.30;99.90;;;;;;4902644;29;20500;-79
2024/01/24 09:17:32;;;;;;;0.47;0.28;;;9.30;99.90;;;;;;4916789;29;20060;-79
2024/01/24 09:19:57;;;;;;;2.83;0.40;;;9.30;99.90;;;;;;4918720;29;20040;-79
2024/01/24 09:22:23;;;;;;;1.48;0.50;;;9.30;99.90;;;;;;4920740;29;20478;-79
2024/01/24 09:24:49;;;;;;;1.23;0.35;;;9.30;99.90;;;;;;4922185;29;20051;-79
2024/01/24 09:27:15;;;;;;;0.68;0.60;;;9.20;99.90;;;;;;4916299;29;20032;-79
2024/01/24 09:29:41;;;;;;;2.92;0.60;;;9.20;99.90;;;;;;4917001;29;20114;-80
2024/01/24 09:32:07;;;;;;;1.38;0.50;;;9.20;99.90;;;;;;4919394;29;20464;-80
2024/01/24 09:34:33;;;;;;;1.55;0.50;;;9.20;99.90;;;;;;4897372;29;20128;-79
2024/01/24 09:36:58;;;;;;;1.25;0.40;;;9.20;99.90;;;;;;4914052;29;20060;-80
2024/01/24 09:39:25;;;;;;;0.25;0.25;;;9.10;99.90;;;;;;4912012;29;20037;-79
2024/01/24 09:41:51;;;;;;;1.67;0.50;;;9.20;99.90;;;;;;4902063;29;20039;-78
2024/01/24 09:44:19;;;;;;;0.40;0.40;;;9.30;99.90;;;;;;4914740;29;20405;-77
2024/01/24 09:46:49;;;;;;;0.73;0.30;;;9.40;99.90;;;;;;4912813;29;20032;-77
2024/01/24 09:49:17;;;;;;;0.98;0.50;;;9.40;99.90;;;;;;4907927;29;20040;-77
2024/01/24 09:51:44;;;;;;;0.50;0.50;;;9.60;99.90;;;;;;4916761;29;20032;-77
2024/01/24 09:54:12;;;;;;;1.02;0.50;;;9.80;99.90;;;;;;4918438;29;20042;-78
2024/01/24 09:56:38;;;;;;;0.32;0.30;;;9.90;99.90;;;;;;4922318;29;20036;-78
2024/01/24 09:59:06;;;;;;;0.35;0.35;;;9.90;99.90;;;;;;4917201;29;20068;-78
2024/01/24 10:01:40;;;;;;;0.40;0.30;;;9.80;99.90;;;;;;4906966;29;20039;-78
2024/01/24 10:04:06;;;;;;;0.35;0.30;;;9.80;99.90;;;;;;4901946;29;20124;-78
2024/01/24 10:06:32;;;;;;;1.75;0.32;;;9.70;99.90;;;;;;4919283;29;20036;-78
2024/01/24 10:08:59;;;;;;;0.40;0.40;;;9.70;99.90;;;;;;4916511;29;20036;-78
2024/01/24 10:11:26;;;;;;;3.63;0.30;;;9.80;99.90;;;;;;4918852;29;20111;-77
2024/01/24 10:13:58;;;;;;;0.45;0.30;;;9.80;99.90;;;;;;4910494;29;20033;-77
2024/01/24 10:16:25;;;;;;;1.00;0.50;;;9.90;99.90;;;;;;4912465;29;20040;-77
2024/01/24 10:18:55;;;;;;;1.10;0.50;;;9.80;99.90;;;;;;4910231;29;20040;-78
2024/01/24 10:21:21;;;;;;;0.20;0.20;;;9.90;99.90;;;;;;4916557;29;20040;-78
2024/01/24 10:23:47;;;;;;;1.20;0.43;;;9.90;99.90;;;;;;4914538;29;20068;-78
2024/01/24 10:26:14;;;;;;;2.30;0.40;;;9.90;99.90;;;;;;4918993;29;20069;-78
2024/01/24 10:28:42;;;;;;;0.20;0.20;;;10.00;99.90;;;;;;4911095;29;20063;-78
2024/01/24 10:31:09;;;;;;;0.40;0.38;;;10.10;99.90;;;;;;4913308;29;21359;-78
2024/01/24 10:33:34;;;;;;;0.47;0.35;;;10.30;99.90;;;;;;4910553;29;20028;-78
2024/01/24 10:36:00;;;;;;;0.85;0.30;;;10.50;99.90;;;;;;4910140;29;20032;-77
2024/01/24 10:38:31;;;;;;;0.32;0.25;;;10.70;99.90;;;;;;4909625;29;20036;-77
2024/01/24 10:41:01;;;;;;;0.20;0.20;;;10.90;99.90;;;;;;4903957;29;20044;-78
2024/01/24 10:43:28;;;;;;;0.95;0.10;;;10.90;99.90;;;;;;4910294;29;20533;-78
2024/01/24 10:45:55;;;;;;;0.52;0.20;;;10.90;99.90;;;;;;4900453;29;20088;-78
2024/01/24 10:48:21;;;;;;;0.10;0.10;;;10.80;99.90;;;;;;4915147;29;20038;-77
2024/01/24 10:50:47;;;;;;;3.10;0.20;;;10.80;99.90;;;;;;4897638;29;20040;-78
2024/01/24 10:53:13;;;;;;;0.60;0.20;;;10.90;99.90;;;;;;4913004;29;20500;-78
2024/01/24 10:55:42;;;;;;;0.32;0.10;;;11.00;99.90;;;;;;4920979;29;20112;-78
2024/01/24 10:58:11;;;;;;;0.85;0.10;;;11.00;99.90;;;;;;4917874;29;20040;-78
2024/01/24 11:00:39;;;;;;;0.10;0.10;;;10.80;99.90;;;;;;4921359;29;20036;-79
2024/01/24 11:03:06;;;;;;;1.70;0.40;;;10.60;99.90;;;;;;4912167;29;20062;-77
2024/01/24 11:05:46;;;;;;;0.47;0.20;;;10.60;99.90;;;;;;4900857;29;20028;-79
2024/01/24 11:08:48;;;;;;;1.17;0.28;;;10.50;99.90;;;;;;4912087;29;20094;-79
2024/01/24 11:11:17;;;;;;;0.85;0.30;;;10.30;99.90;;;;;;4911984;29;20040;-79
2024/01/24 11:13:44;;;;;;;1.00;0.40;;;10.10;99.90;;;;;;4897707;29;20437;-78
2024/01/24 11:16:25;;;;;;;2.30;0.25;;;9.90;99.90;;;;;;4923918;29;20063;-79
2024/01/24 11:18:51;;;;;;;1.77;0.30;;;9.70;99.90;;;;;;4919552;29;20042;-79
2024/01/24 11:21:21;;;;;;;2.88;0.30;;;9.60;99.90;;;;;;4905693;29;20036;-79
2024/01/24 11:23:48;;;;;;;0.40;0.20;;;9.50;99.90;;;;;;4903281;29;20064;-79
2024/01/24 11:26:17;;;;;;;1.35;0.28;;;9.50;99.90;;;;;;4919135;29;20532;-79
2024/01/24 11:28:44;;;;;;;3.30;0.45;;;9.50;99.90;;;;;;4924380;29;20060;-79
2024/01/24 11:31:12;;;;;;;1.42;0.28;;;9.50;99.90;;;;;;4904821;29;20028;-79
2024/01/24 11:34:14;;;;;;;1.10;0.30;;;9.40;99.90;;;;;;4922689;29;20072;-79
2024/01/24 11:36:52;;;;;;;5.80;0.57;;;9.40;99.90;;;;;;4912128;29;20446;-79
2024/01/24 11:39:39;;;;;;;4.05;0.52;;;9.20;99.90;;;;;;4912233;29;20087;-79
2024/01/24 11:42:24;;;;;;;3.60;0.50;;;9.10;99.90;;;;;;4900482;29;20118;-81
2024/01/24 11:44:52;;;;;;;6.43;0.93;;;8.90;99.90;;;;;;4920474;29;20035;-79
2024/01/24 11:47:18;;;;;;;3.78;1.25;;;8.90;99.90;;;;;;4914276;29;20167;-79
2024/01/24 11:49:50;;;;;;;9.55;1.10;;;8.70;99.90;;;;;;4913968;29;20112;-80
2024/01/24 11:52:21;;;;;;;5.78;0.70;;;8.60;99.90;;;;;;4917617;29;20044;-79
2024/01/24 11:54:51;;;;;;;4.43;0.50;;;8.60;99.90;;;;;;4903128;29;20043;-80
2024/01/24 11:57:17;;;;;;;5.20;0.73;;;8.60;99.90;;;;;;4912073;29;20445;-80
2024/01/24 11:59:43;;;;;;;5.85;0.60;;;8.70;99.90;;;;;;4924981;29;20140;-80
2024/01/24 12:02:09;;;;;;;10.48;1.00;;;8.70;99.90;;;;;;4871771;29;20048;-80
2024/01/24 12:04:34;;;;;;;4.78;0.60;;;8.80;99.90;;;;;;4913885;29;20062;-80
2024/01/24 12:07:01;;;;;;;5.70;0.95;;;8.90;99.90;;;;;;4915543;29;20044;-80
2024/01/24 12:09:27;;;;;;;2.45;0.70;;;8.90;99.90;;;;;;4919149;29;20043;-79
2024/01/24 12:11:52;;;;;;;4.53;0.80;;;8.90;99.90;;;;;;4918993;29;20036;-80
2024/01/24 12:14:20;;;;;;;5.60;1.25;;;9.00;99.90;;;;;;4902130;29;20037;-81
2024/01/24 12:16:47;;;;;;;8.95;0.88;;;9.00;99.90;;;;;;4917870;29;20092;-80
2024/01/24 12:19:15;;;;;;;9.20;0.93;;;9.00;99.90;;;;;;4920581;29;20091;-80
2024/01/24 12:21:41;;;;;;;15.13;1.30;;;8.90;99.90;;;;;;4917268;29;20056;-79
2024/01/24 12:24:08;;;;;;;10.40;1.38;;;8.90;99.90;;;;;;4919497;29;20115;-79
2024/01/24 12:26:35;;;;;;;11.25;1.30;;;8.90;99.90;;;;;;4921634;29;20036;-79
2024/01/24 12:29:03;;;;;;;13.55;1.52;;;9.00;99.90;;;;;;4921450;29;20477;-80
2024/01/24 12:31:29;;;;;;;13.90;3.05;;;9.10;99.90;;;;;;4901554;29;20131;-79
2024/01/24 12:33:58;;;;;;;11.43;1.58;;;9.20;99.90;;;;;;4908593;29;20036;-79
2024/01/24 12:36:24;;;;;;;13.73;2.05;;;9.20;99.90;;;;;;4913693;29;20061;-79
2024/01/24 12:38:54;;;;;;;13.13;2.03;;;9.20;99.90;;;;;;4914783;29;20044;-79
2024/01/24 12:41:21;;;;;;;9.32;1.73;;;9.30;99.90;;;;;;4918847;29;20520;-78
2024/01/24 12:43:47;;;;;;;11.20;1.58;;;9.30;99.90;;;;;;4900931;29;20040;-79
2024/01/24 12:46:13;;;;;;;17.30;2.20;;;9.10;99.90;;;;;;4926849;29;20039;-78
2024/01/24 12:48:38;;;;;;;9.80;1.83;;;8.90;99.90;;;;;;4919510;29;20028;-79
2024/01/24 12:51:05;;;;;;;10.02;1.85;;;8.70;99.90;;;;;;4924959;29;20040;-78
2024/01/24 12:53:32;;;;;;;13.90;1.90;;;8.70;99.90;;;;;;4899481;29;20044;-78